Latest Coastal Weather Observations for Eucla

IDS60701

Issued at 10:11 pm CST Wednesday 26 July 2017 (issued every 10 minutes, with the page automatically refreshed every 10 minutes)

About coastal observations | Map of coastal stations | Coastal observations for SA | Marine services | Other Formats
Station Details ID: 011003 Name: EUCLA Lat: -31.68 Lon: 128.90 Height: 93.1 m
Data from the previous 72 hours. | See also: Recent months at Eucla
Date/Time
CST
Temp
°C
Wind Pressure Rain since
9am
mm
Weather Cloud Vis
km
Sea
Height
m
Swell
Dir  Spd
kts
Gust
kts
hPa Trend Height
m
Period
s
Dir
26/10:00pm 15.8 NNE 9 14 1017.2 - 0.0 - - - - - - -
26/09:30pm 15.7 NNE 8 10 1017.4 - 0.0 - - - - - - -
26/09:00pm 16.1 NNE 7 8 1017.5 - 0.0 - - - - - - -
26/08:30pm 17.0 NNE 8 10 1017.5 - 0.0 - - - - - - -
26/08:00pm 17.9 NNE 7 8 1017.7 - 0.0 - - - - - - -
26/07:30pm 18.4 NNE 7 8 1017.7 - 0.0 - - - - - - -
26/07:00pm 18.9 NNE 7 7 1017.6 - 0.0 - - - - - - -
26/06:30pm 20.3 N 6 7 1017.5 - 0.0 - - - - - - -
26/06:00pm 22.9 N 7 10 1017.4 - 0.0 - - - - - - -
26/05:30pm 24.1 NNW 9 13 1017.5 - 0.0 - - - - - - -
26/05:00pm 25.0 N 8 15 1017.5 - 0.0 - - - - - - -
26/04:30pm 25.3 N 8 14 1017.4 - 0.0 Fine Partly cloudy 40 - - - -
26/04:00pm 25.2 N 8 16 1017.6 - 0.0 - - - - - - -
26/03:30pm 25.0 NNW 7 11 1018.0 - 0.0 - - - - - - -
26/03:00pm 25.1 N 10 16 1018.6 - 0.0 - - - - - - -
26/02:30pm 24.8 N 11 17 1019.0 - 0.0 - - - - - - -
26/02:00pm 23.9 N 12 17 1019.4 - 0.0 - - - - - - -
26/01:30pm 23.6 N 13 20 1020.0 - 0.0 - - - - - - -
26/01:00pm 22.5 N 13 19 1020.6 - 0.0 - - - - - - -
26/12:30pm 21.4 N 15 20 1021.4 - 0.0 - - - - - - -
26/12:00pm 20.4 NNE 13 21 1022.1 - 0.0 - - - - - - -
26/11:30am 19.3 NNE 13 19 1022.6 - 0.0 - - - - - - -
26/11:00am 17.6 N 13 19 1023.0 - 0.0 - - - - - - -
26/10:30am 15.2 N 13 17 1023.4 - 0.4 Fine Mostly clear 40 - - - -
26/10:00am 12.4 N 12 16 1023.5 - 0.4 - - - - - - -
26/09:30am 10.6 N 12 19 1023.5 - 0.4 - - - - - - -
26/09:00am 9.1 N 12 16 1023.6 - 0.4 - - - - - - -
26/08:30am 7.7 N 11 15 1023.4 - 0.4 - - - - - - -
26/08:00am 7.8 N 11 15 1023.2 - 0.4 - - - - - - -
26/07:30am 7.1 N 10 15 1022.8 - 0.4 - - - - - - -
26/07:00am 7.2 N 10 14 1022.5 - 0.4 - - - - - - -
26/06:30am 7.5 N 10 15 1022.3 - 0.4 - - - - - - -
26/06:00am 7.1 NNE 9 14 1021.9 - 0.2 - - - - - - -
26/05:30am 7.4 NNE 9 13 1022.1 - 0.2 - - - - - - -
26/05:00am 6.7 NNE 7 9 1022.5 - 0.2 - - - - - - -
26/04:30am 6.6 NNE 7 9 1022.4 - 0.2 - - - - - - -
26/04:00am 7.0 NNE 7 9 1022.8 - 0.2 - - - - - - -
26/03:30am 7.4 NNE 7 9 1023.0 - 0.2 - - - - - - -
26/03:00am 6.9 NNE 7 9 1022.8 - 0.2 - - - - - - -
26/02:30am 7.0 NNE 7 9 1022.9 - 0.2 - - - - - - -
26/02:00am 7.0 NNE 7 8 1023.1 - 0.2 - - - - - - -
26/01:30am 7.5 NNE 5 6 1023.4 - 0.2 - - - - - - -
26/01:00am 7.2 NNE 5 6 1023.8 - 0.2 - - - - - - -
26/12:30am 7.5 NNE 5 6 1023.9 - 0.2 - - - - - - -
26/12:00am 9.0 NE 5 6 1023.9 - 0.2 - - - - - - -
 
Date/Time
CST
Temp
°C
Wind Pressure Rain since
9am
mm
Weather Cloud Vis
km
Sea
Height
m
Swell
Dir  Spd
kts
Gust
kts
hPa Trend Height
m
Period
s
Dir
25/11:30pm 9.6 ENE 5 5 1023.8 - 0.2 - - - - - - -
25/11:00pm 11.4 E 5 6 1024.0 - 0.2 - - - - - - -
25/10:30pm 12.1 ESE 5 6 1024.0 - 0.2 - - - - - - -
25/10:00pm 12.6 SE 5 6 1024.0 - 0.2 - - - - - - -
25/09:30pm 12.6 SE 5 7 1024.2 - 0.2 - - - - - - -
25/09:00pm 12.9 SE 6 7 1023.7 - 0.2 - - - - - - -
25/08:30pm 13.0 SE 6 7 1023.1 - 0.2 - - - - - - -
25/08:00pm 13.3 SSE 6 7 1022.9 - 0.2 - - - - - - -
25/07:30pm 13.4 SSE 5 6 1022.7 - 0.2 - - - - - - -
25/07:00pm 13.6 SSE 5 6 1022.3 - 0.2 - - - - - - -
25/06:30pm 14.1 SSE 5 6 1022.1 - 0.2 - - - - - - -
25/06:00pm 15.2 SSE 5 9 1022.1 - 0.2 - - - - - - -
25/05:30pm 16.5 SSE 6 8 1022.0 - 0.2 - - - - - - -
25/05:00pm 17.5 SSE 6 11 1021.8 - 0.2 - - - - - - -
25/04:30pm 18.2 SSE 8 12 1021.4 - 0.2 Fine Mostly clear 40 - - - -
25/04:00pm 18.9 S 7 10 1021.4 - 0.2 - - - - - - -
25/03:30pm 18.9 S 8 11 1021.3 - 0.2 - - - - - - -
25/03:00pm 18.5 SSE 7 10 1021.2 - 0.2 - - - - - - -
25/02:30pm 19.3 SSE 7 11 1021.1 - 0.2 - - - - - - -
25/02:00pm 19.1 SSE 6 9 1021.0 - 0.2 - - - - - - -
25/01:30pm 19.4 SSE 6 9 1021.3 - 0.2 - - - - - - -
25/01:00pm 18.9 SSE 7 9 1021.5 - 0.2 - - - - - - -
25/12:30pm 19.3 SE 6 8 1021.9 - 0.2 - - - - - - -
25/12:00pm 19.1 SW 4 6 1022.1 - 0.2 - - - - - - -
25/11:30am 18.2 SW 4 6 1022.4 - 0.0 - - - - - - -
25/11:00am 16.8 N 3 6 1022.7 - 0.0 - - - - - - -
25/10:30am 15.5 NNW 5 6 1022.7 - 0.0 Fine Mostly clear 40 - - - -
25/10:00am 13.6 N 5 6 1022.5 - 0.0 - - - - - - -
25/09:30am 11.5 NNW 5 7 1022.2 - 0.0 - - - - - - -
25/09:00am 9.9 N 5 7 1021.9 - 0.0 - - - - - - -
25/08:30am 8.7 NNW 6 7 1021.7 - 0.0 - - - - - - -
25/08:00am 7.7 NNW 5 6 1021.3 - 0.0 - - - - - - -
25/07:30am 7.6 N 5 6 1020.9 - 0.0 - - - - - - -
25/07:00am 7.5 N 5 6 1020.7 - 0.0 - - - - - - -
25/06:30am 7.5 N 6 7 1020.7 - 0.0 - - - - - - -
25/06:00am 7.5 N 5 6 1020.4 - 0.0 - - - - - - -
25/05:30am 7.5 NNW 4 5 1020.2 - 0.0 - - - - - - -
25/05:00am 9.0 NW 5 5 1019.9 - 0.0 - - - - - - -
25/04:30am 10.6 NW 2 4 1019.6 - 0.0 - - - - - - -
25/04:00am 9.5 CALM 0 0 1019.6 - 0.0 - - - - - - -
25/03:30am 8.6 CALM 0 0 1019.4 - 0.0 - - - - - - -
25/03:00am 7.3 CALM 0 0 1019.6 - 0.0 - - - - - - -
25/02:30am 7.8 N 5 5 1019.6 - 0.0 - - - - - - -
25/02:00am 7.1 N 5 6 1019.5 - 0.0 - - - - - - -
25/01:30am 7.3 N 5 6 1019.5 - 0.0 - - - - - - -
25/01:00am 7.3 N 4 5 1019.0 - 0.0 - - - - - - -
25/12:30am 8.2 N 4 5 1019.1 - 0.0 - - - - - - -
25/12:00am 8.9 NNE 5 6 1019.3 - 0.0 - - - - - - -
 
Date/Time
CST
Temp
°C
Wind Pressure Rain since
9am
mm
Weather Cloud Vis
km
Sea
Height
m
Swell
Dir  Spd
kts
Gust
kts
hPa Trend Height
m
Period
s
Dir
24/11:30pm 10.9 NNE 5 7 1019.1 - 0.0 - - - - - - -
24/11:00pm 12.1 SSW 6 7 1018.7 - 0.0 - - - - - - -
24/10:30pm 9.4 S 5 6 1018.9 - 0.0 - - - - - - -
24/10:00pm 7.4 S 4 4 1018.8 - 0.0 - - - - - - -
24/09:30pm 8.1 S 4 4 1018.8 - 0.0 - - - - - - -
24/09:00pm 10.0 S 5 5 1018.6 - 0.0 - - - - - - -
24/08:30pm 10.2 S 5 5 1018.7 - 0.0 - - - - - - -
24/08:00pm 9.9 CALM 0 0 1018.5 - 0.0 - - - - - - -
24/07:30pm 11.6 S 4 4 1018.3 - 0.0 - - - - - - -
24/07:00pm 13.6 SSW 5 6 1018.0 - 0.0 - - - - - - -
24/06:30pm 14.2 SSW 5 6 1017.7 - 0.0 - - - - - - -
24/06:00pm 15.4 SSW 7 9 1017.6 - 0.0 - - - - - - -
24/05:30pm 16.7 SSW 8 14 1017.4 - 0.0 - - - - - - -
24/05:00pm 17.8 SSW 8 12 1017.1 - 0.0 - - - - - - -
24/04:30pm 18.4 SSW 8 12 1016.9 - 0.0 Fine Clear 40 - - - -
24/04:00pm 19.4 SSW 9 14 1016.8 - 0.0 - - - - - - -
24/03:30pm 20.1 SSW 9 13 1016.7 - 0.0 - - - - - - -
24/03:00pm 20.5 SSW 9 14 1016.7 - 0.0 - - - - - - -
24/02:30pm 21.4 SSW 8 14 1016.7 - 0.0 - - - - - - -
24/02:00pm 24.9 WNW 8 15 1016.8 - 0.0 - - - - - - -
24/01:30pm 24.7 WNW 11 19 1017.0 - 0.0 - - - - - - -
24/01:00pm 24.2 NW 11 15 1017.2 - 0.0 - - - - - - -
24/12:30pm 23.1 WNW 12 17 1017.8 - 0.0 - - - - - - -
24/12:00pm 22.7 WNW 12 20 1018.3 - 0.0 - - - - - - -
24/11:30am 23.0 NW 10 18 1018.5 - 0.0 - - - - - - -
24/11:00am 22.0 NNW 9 13 1018.6 - 0.0 - - - - - - -
24/10:30am 20.4 NNW 9 14 1018.7 - 0.0 Fine Clear 40 - - - -
24/10:00am 17.3 N 8 11 1018.7 - 0.0 - - - - - - -
24/09:30am 13.4 N 7 9 1018.5 - 0.0 - - - - - - -
24/09:00am 10.2 N 8 10 1018.4 - 0.0 - - - - - - -
24/08:30am 8.0 N 8 9 1018.4 - 0.0 - - - - - - -
24/08:00am 6.7 N 8 9 1018.2 - 0.0 - - - - - - -
24/07:30am 6.5 N 7 9 1018.1 - 0.0 - - - - - - -
24/07:00am 6.7 N 8 9 1017.7 - 0.0 - - - - - - -
24/06:30am 6.7 N 8 10 1017.6 - 0.0 - - - - - - -
24/06:00am 6.5 N 9 10 1017.5 - 0.0 - - - - - - -
24/05:30am 6.4 N 8 10 1017.3 - 0.0 - - - - - - -
24/05:00am 6.1 N 8 9 1017.4 - 0.0 - - - - - - -
24/04:30am 6.5 N 7 9 1017.5 - 0.0 - - - - - - -
24/04:00am 6.4 N 7 8 1017.8 - 0.0 - - - - - - -
24/03:30am 6.5 N 7 8 1017.8 - 0.0 - - - - - - -
24/03:00am 7.3 N 7 8 1018.0 - 0.0 - - - - - - -
24/02:30am 7.8 NNE 7 8 1018.1 - 0.0 - - - - - - -
24/02:00am 8.4 NNE 6 7 1018.2 - 0.0 - - - - - - -
24/01:30am 9.0 NNE 6 8 1018.5 - 0.0 - - - - - - -
24/01:00am 9.3 NNE 6 7 1018.6 - 0.0 - - - - - - -
24/12:30am 9.6 NNE 6 7 1018.8 - 0.0 - - - - - - -
24/12:00am 10.3 NE 5 6 1019.0 - 0.0 - - - - - - -

Other Formats:

Comma delimited format used in spreadsheet applications
http://www.bom.gov.au/fwo/IDS60701/IDS60701.94647.axf

JavaScript Object Notation format (JSON) in row-major order
http://www.bom.gov.au/fwo/IDS60701/IDS60701.94647.json